createdAt,value
2018-12-20T00:07:10.129Z,4.90
2018-12-20T00:12:17.113Z,5.00
2018-12-20T00:17:31.543Z,5.00
2018-12-20T00:22:42.478Z,5.00
2018-12-20T00:27:48.397Z,5.10
2018-12-20T00:32:53.327Z,5.10
2018-12-20T00:37:59.863Z,5.20
2018-12-20T00:43:06.830Z,5.10
2018-12-20T00:48:11.260Z,5.10
2018-12-20T00:53:20.599Z,5.00
2018-12-20T00:58:28.401Z,4.90
2018-12-20T01:03:35.255Z,4.90
2018-12-20T01:08:41.983Z,5.00
2018-12-20T01:13:54.682Z,5.00
2018-12-20T01:19:03.279Z,5.10
2018-12-20T01:24:08.366Z,5.10
2018-12-20T01:29:15.021Z,5.20
2018-12-20T01:34:23.556Z,5.10
2018-12-20T01:39:32.369Z,5.00
2018-12-20T01:44:39.087Z,4.90
2018-12-20T01:49:46.907Z,4.90
2018-12-20T01:54:55.827Z,5.00
2018-12-20T02:00:07.559Z,5.00
2018-12-20T02:05:14.252Z,5.10
2018-12-20T02:10:22.816Z,5.10
2018-12-20T02:15:32.013Z,5.10
2018-12-20T02:20:40.783Z,5.00
2018-12-20T02:25:45.738Z,5.00
2018-12-20T02:30:50.300Z,5.00
2018-12-20T02:35:59.191Z,5.10
2018-12-20T02:41:05.333Z,5.10
2018-12-20T02:46:14.410Z,5.20
2018-12-20T02:51:19.561Z,5.10
2018-12-20T02:56:25.249Z,5.10
2018-12-20T03:01:29.863Z,5.10
2018-12-20T03:06:39.370Z,5.10
2018-12-20T03:11:48.051Z,5.10
2018-12-20T03:16:57.612Z,5.00
2018-12-20T03:22:06.467Z,5.00
2018-12-20T03:27:14.113Z,4.90
2018-12-20T03:32:21.756Z,4.80
2018-12-20T03:37:29.401Z,4.80
2018-12-20T03:42:38.707Z,4.80
2018-12-20T03:47:44.323Z,4.90
2018-12-20T03:52:51.509Z,4.90
2018-12-20T03:57:58.471Z,4.90
2018-12-20T04:03:05.886Z,4.90
2018-12-20T04:08:15.173Z,4.90
2018-12-20T04:13:25.637Z,4.90
2018-12-20T04:18:31.958Z,4.90
2018-12-20T04:23:38.689Z,4.90
2018-12-20T04:28:46.224Z,4.80
2018-12-20T04:33:53.959Z,4.90
2018-12-20T04:39:01.458Z,4.90
2018-12-20T04:44:09.150Z,4.90
2018-12-20T04:49:13.042Z,4.90
2018-12-20T04:54:20.267Z,4.80
2018-12-20T04:59:26.811Z,3.90
2018-12-20T05:04:35.807Z,5.00
2018-12-20T05:09:43.950Z,5.00
2018-12-20T05:14:54.214Z,5.00
2018-12-20T05:19:59.045Z,5.00
2018-12-20T05:25:05.734Z,5.20
2018-12-20T05:30:14.323Z,5.20
2018-12-20T05:35:21.936Z,5.20
2018-12-20T05:40:26.591Z,5.10
2018-12-20T05:45:33.406Z,5.00
2018-12-20T05:50:43.546Z,5.00
2018-12-20T05:55:51.222Z,5.10
2018-12-20T06:01:00.072Z,5.10
2018-12-20T06:06:06.371Z,5.10
2018-12-20T06:11:14.969Z,5.20
2018-12-20T06:16:21.800Z,5.10
2018-12-20T06:21:31.711Z,5.10
2018-12-20T06:26:41.219Z,5.20
2018-12-20T06:31:45.178Z,5.30
2018-12-20T06:36:56.030Z,5.30
2018-12-20T06:42:06.159Z,5.30
2018-12-20T06:47:12.642Z,5.30
2018-12-20T06:52:20.260Z,5.30
2018-12-20T06:57:27.354Z,5.40
2018-12-20T07:02:31.509Z,5.30
2018-12-20T07:07:43.373Z,5.30
2018-12-20T07:12:52.265Z,5.40
2018-12-20T07:17:58.046Z,5.40
2018-12-20T07:23:06.746Z,5.50
2018-12-20T07:28:13.799Z,5.60
2018-12-20T07:33:21.351Z,5.70
2018-12-20T07:38:27.718Z,5.80
2018-12-20T07:43:34.516Z,5.80
2018-12-20T07:48:40.619Z,5.90
2018-12-20T07:53:49.288Z,5.80
2018-12-20T07:58:55.657Z,5.90
2018-12-20T08:04:03.630Z,6.00
2018-12-20T08:09:11.042Z,6.20
2018-12-20T08:14:20.049Z,6.30
2018-12-20T08:19:36.217Z,6.30
2018-12-20T08:24:40.815Z,6.30
2018-12-20T08:29:51.346Z,6.30
2018-12-20T08:34:55.410Z,6.30
2018-12-20T08:40:06.309Z,6.60
2018-12-20T08:45:15.418Z,6.70
2018-12-20T08:50:25.145Z,6.80
2018-12-20T08:55:32.517Z,6.80
2018-12-20T09:00:39.203Z,6.80
2018-12-20T09:05:45.932Z,6.90
2018-12-20T09:10:55.250Z,7.00
2018-12-20T09:16:02.265Z,6.90
2018-12-20T09:21:10.970Z,7.20
2018-12-20T09:26:20.003Z,7.30
2018-12-20T09:31:28.547Z,7.40
2018-12-20T09:36:38.998Z,7.50
2018-12-20T09:41:47.279Z,7.60
2018-12-20T09:47:11.888Z,7.60
2018-12-20T09:52:14.422Z,7.60
2018-12-20T09:57:21.819Z,7.80
2018-12-20T10:02:24.680Z,7.90
2018-12-20T10:07:28.183Z,8.10
2018-12-20T10:12:52.405Z,8.30
2018-12-20T10:17:58.528Z,8.40
2018-12-20T10:23:09.283Z,8.60
2018-12-20T10:28:16.519Z,8.80
2018-12-20T10:33:22.349Z,8.10
2018-12-20T10:38:32.155Z,8.80
2018-12-20T10:43:39.587Z,8.70
2018-12-20T10:48:46.960Z,8.80
2018-12-20T10:53:53.995Z,8.70
2018-12-20T10:59:03.091Z,8.60
2018-12-20T11:04:15.698Z,8.70
2018-12-20T11:09:29.227Z,8.70
2018-12-20T11:20:07.034Z,8.70
2018-12-20T11:25:14.021Z,8.80
2018-12-20T11:30:27.293Z,8.90
2018-12-20T11:35:39.578Z,9.00
2018-12-20T11:40:46.112Z,9.30
2018-12-20T11:45:52.351Z,9.40
2018-12-20T12:02:13.477Z,9.20
2018-12-20T12:07:20.766Z,9.60
2018-12-20T12:12:34.594Z,9.60
2018-12-20T12:17:42.006Z,9.70
2018-12-20T12:45:47.634Z,9.50
2018-12-20T13:25:18.858Z,8.60
2018-12-20T13:30:27.546Z,8.60
2018-12-20T13:35:34.585Z,8.60
2018-12-20T13:40:39.799Z,8.60
2018-12-20T13:45:46.078Z,8.50
2018-12-20T13:50:53.414Z,8.50
2018-12-20T13:55:58.706Z,8.50
2018-12-20T14:01:06.358Z,8.40
2018-12-20T14:06:15.555Z,8.40
2018-12-20T14:22:23.330Z,8.20
2018-12-20T14:27:33.745Z,8.20
2018-12-20T14:32:46.914Z,8.20
2018-12-20T14:37:56.503Z,8.00
2018-12-20T14:43:02.550Z,7.90
2018-12-20T14:48:07.830Z,7.90
2018-12-20T14:53:14.282Z,7.70
2018-12-20T14:58:21.560Z,7.70
2018-12-20T15:03:33.639Z,7.70
2018-12-20T15:08:42.718Z,7.80
2018-12-20T15:13:55.922Z,7.80
2018-12-20T15:19:02.845Z,7.90
2018-12-20T15:24:16.257Z,7.90
2018-12-20T15:29:24.035Z,7.90
2018-12-20T15:34:28.994Z,7.90
2018-12-20T15:39:37.806Z,7.90
2018-12-20T15:44:40.620Z,7.80
2018-12-20T15:49:44.774Z,7.80
2018-12-20T15:54:49.303Z,7.90
2018-12-20T15:59:58.254Z,8.00
2018-12-20T16:05:05.104Z,7.90
2018-12-20T16:10:09.499Z,8.00
2018-12-20T16:15:13.366Z,8.00
2018-12-20T16:20:16.812Z,7.90
2018-12-20T16:25:20.622Z,7.90
2018-12-20T16:30:23.518Z,7.70
2018-12-20T16:35:27.283Z,7.60
2018-12-20T16:40:30.805Z,7.60
2018-12-20T16:45:36.907Z,7.50
2018-12-20T16:50:39.635Z,7.40
2018-12-20T16:55:44.269Z,7.40
2018-12-20T17:00:50.201Z,7.30
2018-12-20T17:05:53.297Z,7.20
2018-12-20T17:10:59.234Z,7.10
2018-12-20T17:16:03.394Z,6.90
2018-12-20T17:21:06.824Z,6.60
2018-12-20T17:26:09.737Z,6.40
2018-12-20T17:31:18.365Z,6.10
2018-12-20T17:36:26.898Z,5.90
2018-12-20T17:41:34.278Z,5.70
2018-12-20T17:46:37.822Z,5.50
2018-12-20T17:51:40.722Z,5.40
2018-12-20T17:56:43.639Z,5.20
2018-12-20T18:01:47.402Z,5.20
2018-12-20T18:06:50.866Z,5.10
2018-12-20T18:11:57.627Z,5.00
2018-12-20T18:17:01.276Z,4.80
2018-12-20T18:22:10.319Z,4.70
2018-12-20T18:27:19.146Z,4.60
2018-12-20T18:32:22.906Z,4.40
2018-12-20T18:37:26.318Z,4.20
2018-12-20T18:42:29.843Z,4.10
2018-12-20T18:47:38.371Z,4.10
2018-12-20T18:52:48.372Z,4.10
2018-12-20T18:57:57.110Z,4.20
2018-12-20T19:03:03.646Z,4.30
2018-12-20T19:08:12.798Z,4.40
2018-12-20T19:13:21.359Z,4.50
2018-12-20T19:18:40.929Z,4.60
2018-12-20T19:29:27.974Z,4.60
2018-12-20T19:34:30.779Z,4.70
2018-12-20T19:39:38.292Z,4.80
2018-12-20T19:44:44.206Z,4.90
2018-12-20T19:49:53.132Z,5.00
2018-12-20T19:54:57.825Z,5.20
2018-12-20T20:00:11.544Z,5.40
2018-12-20T20:05:24.134Z,5.60
2018-12-20T20:10:33.633Z,5.70
2018-12-20T20:15:36.586Z,5.80
2018-12-20T20:20:53.486Z,5.80
2018-12-20T20:25:58.020Z,5.60
2018-12-20T20:36:44.648Z,5.40
2018-12-20T20:41:48.640Z,5.40
2018-12-20T20:46:57.358Z,5.40
2018-12-20T20:52:06.030Z,5.60
2018-12-20T20:57:14.863Z,5.70
2018-12-20T21:24:54.472Z,5.50
2018-12-20T21:30:04.842Z,5.50
2018-12-20T21:35:13.507Z,5.40
2018-12-20T21:40:22.392Z,5.40
2018-12-20T21:45:25.607Z,5.40
2018-12-20T21:50:38.792Z,5.30
2018-12-20T21:55:37.437Z,5.40
2018-12-20T22:00:43.356Z,5.70
2018-12-20T22:05:52.617Z,6.00
2018-12-20T22:10:55.619Z,6.20
2018-12-20T22:16:03.169Z,6.40
2018-12-20T22:21:07.251Z,6.60
2018-12-20T22:26:16.211Z,6.70
2018-12-20T22:31:19.534Z,6.80
2018-12-20T22:36:28.168Z,6.90
2018-12-20T22:58:39.895Z,6.80
2018-12-20T23:03:42.626Z,6.70
2018-12-20T23:37:12.818Z,6.80
2018-12-20T23:42:15.918Z,6.90
2018-12-20T23:47:24.571Z,6.90
2018-12-20T23:52:33.406Z,6.80
2018-12-20T23:57:42.014Z,6.80
